createdAt,value
2022-08-01T00:00:14.733Z,2.20
2022-08-01T00:02:41.943Z,1.90
2022-08-01T00:05:10.000Z,2.13
2022-08-01T00:07:37.348Z,2.10
2022-08-01T00:10:06.125Z,1.80
2022-08-01T00:12:33.085Z,1.80
2022-08-01T00:15:00.178Z,1.67
2022-08-01T00:17:27.273Z,2.35
2022-08-01T00:19:54.176Z,2.08
2022-08-01T00:22:21.057Z,2.30
2022-08-01T00:24:47.960Z,1.88
2022-08-01T00:27:14.924Z,2.10
2022-08-01T00:30:01.179Z,2.30
2022-08-01T00:32:30.775Z,2.25
2022-08-01T00:34:57.716Z,1.92
2022-08-01T00:37:24.698Z,2.05
2022-08-01T00:39:51.650Z,1.98
2022-08-01T00:42:18.645Z,2.15
2022-08-01T00:44:45.618Z,2.15
2022-08-01T00:47:12.600Z,1.95
2022-08-01T00:49:39.749Z,2.30
2022-08-01T00:52:07.710Z,2.13
2022-08-01T00:54:35.317Z,1.85
2022-08-01T00:57:03.270Z,2.15
2022-08-01T00:59:30.825Z,2.38
2022-08-01T01:01:59.056Z,2.13
2022-08-01T01:04:26.065Z,2.42
2022-08-01T01:07:08.349Z,2.10
2022-08-01T01:09:53.156Z,2.10
2022-08-01T01:12:50.126Z,2.42
2022-08-01T01:15:43.439Z,1.95
2022-08-01T01:18:21.335Z,1.95
2022-08-01T01:20:58.830Z,2.20
2022-08-01T01:23:53.318Z,2.42
2022-08-01T01:26:45.262Z,2.10
2022-08-01T01:29:21.312Z,1.95
2022-08-01T01:32:02.987Z,2.20
2022-08-01T01:34:35.502Z,2.03
2022-08-01T01:37:05.509Z,1.90
2022-08-01T01:39:34.919Z,2.25
2022-08-01T01:42:03.197Z,2.17
2022-08-01T01:44:32.047Z,2.10
2022-08-01T01:47:00.548Z,2.20
2022-08-01T01:49:29.556Z,2.10
2022-08-01T01:52:03.203Z,2.03
2022-08-01T01:54:36.119Z,1.75
2022-08-01T01:57:05.499Z,1.88
2022-08-01T01:59:35.737Z,1.88
2022-08-01T02:02:08.866Z,2.10
2022-08-01T02:04:43.515Z,2.28
2022-08-01T02:07:13.336Z,2.20
2022-08-01T02:09:42.960Z,2.25
2022-08-01T02:14:59.507Z,2.17
2022-08-01T02:17:27.767Z,2.35
2022-08-01T02:19:55.588Z,2.00
2022-08-01T02:22:29.863Z,2.22
2022-08-01T02:25:03.109Z,1.98
2022-08-01T02:27:35.683Z,2.50
2022-08-01T02:30:15.079Z,1.90
2022-08-01T02:32:52.326Z,2.50
2022-08-01T02:35:28.277Z,2.00
2022-08-01T02:37:57.865Z,2.40
2022-08-01T02:42:58.090Z,2.08
2022-08-01T02:47:56.826Z,2.40
2022-08-01T02:50:26.838Z,2.20
2022-08-01T02:52:55.199Z,2.10
2022-08-01T02:55:23.690Z,2.25
2022-08-01T02:57:59.937Z,2.35
2022-08-01T03:00:30.684Z,2.20
2022-08-01T03:02:59.177Z,2.10
2022-08-01T03:05:27.053Z,2.13
2022-08-01T03:07:56.948Z,2.28
2022-08-01T03:10:31.780Z,1.92
2022-08-01T03:13:01.300Z,1.90
2022-08-01T03:15:32.227Z,2.03
2022-08-01T03:18:01.864Z,2.15
2022-08-01T03:22:59.013Z,2.58
2022-08-01T03:25:27.732Z,2.30
2022-08-01T03:27:57.664Z,1.93
2022-08-01T03:30:26.320Z,2.20
2022-08-01T03:32:53.405Z,2.50
2022-08-01T03:35:23.157Z,1.98
2022-08-01T03:38:15.353Z,2.38
2022-08-01T03:40:54.436Z,2.30
2022-08-01T03:43:36.435Z,2.30
2022-08-01T03:46:09.013Z,2.30
2022-08-01T03:48:40.659Z,2.20
2022-08-01T03:51:09.767Z,2.47
2022-08-01T03:53:40.030Z,2.53
2022-08-01T03:56:10.845Z,2.38
2022-08-01T03:58:40.745Z,2.00
2022-08-01T04:01:15.890Z,2.40
2022-08-01T04:03:44.267Z,2.50
2022-08-01T04:06:11.625Z,2.30
2022-08-01T04:08:39.489Z,2.35
2022-08-01T04:11:06.982Z,2.40
2022-08-01T04:13:37.329Z,2.60
2022-08-01T04:16:05.796Z,2.25
2022-08-01T04:18:33.252Z,2.70
2022-08-01T04:21:00.152Z,2.60
2022-08-01T04:23:28.743Z,3.00
2022-08-01T04:25:58.380Z,2.53
2022-08-01T04:31:01.554Z,2.30
2022-08-01T04:33:31.009Z,2.38
2022-08-01T04:36:01.394Z,2.70
2022-08-01T04:38:34.376Z,2.40
2022-08-01T04:41:08.546Z,2.95
2022-08-01T04:43:40.486Z,2.40
2022-08-01T04:46:08.939Z,2.33
2022-08-01T04:48:38.628Z,2.70
2022-08-01T04:51:12.315Z,2.80
2022-08-01T04:53:39.237Z,2.50
2022-08-01T04:56:06.879Z,2.28
2022-08-01T04:58:33.857Z,2.50
2022-08-01T05:01:01.023Z,2.25
2022-08-01T05:03:28.192Z,2.60
2022-08-01T05:05:55.405Z,2.50
2022-08-01T05:08:22.293Z,2.60
2022-08-01T05:10:49.274Z,2.83
2022-08-01T05:13:16.487Z,2.45
2022-08-01T05:15:43.409Z,3.05
2022-08-01T05:18:10.582Z,2.72
2022-08-01T05:20:38.180Z,2.90
2022-08-01T05:23:06.275Z,3.47
2022-08-01T05:25:56.198Z,2.78
2022-08-01T05:28:24.495Z,2.70
2022-08-01T05:30:51.400Z,2.70
2022-08-01T05:33:18.281Z,2.63
2022-08-01T05:35:48.917Z,2.90
2022-08-01T05:38:16.655Z,2.60
2022-08-01T05:40:43.601Z,3.28
2022-08-01T05:43:10.453Z,3.03
2022-08-01T05:45:37.943Z,2.83
2022-08-01T05:48:05.151Z,2.80
2022-08-01T05:50:33.436Z,2.88
2022-08-01T05:53:00.314Z,2.63
2022-08-01T05:55:27.221Z,3.10
2022-08-01T05:57:54.138Z,2.83
2022-08-01T06:00:21.192Z,2.90
2022-08-01T06:02:48.061Z,3.28
2022-08-01T06:05:15.111Z,2.97
2022-08-01T06:07:42.029Z,3.15
2022-08-01T06:10:09.795Z,2.95
2022-08-01T06:12:37.468Z,3.17
2022-08-01T06:15:05.938Z,3.42
2022-08-01T06:17:32.883Z,3.10
2022-08-01T06:20:00.468Z,2.95
2022-08-01T06:22:27.665Z,2.85
2022-08-01T06:24:54.754Z,2.47
2022-08-01T06:27:22.684Z,3.38
2022-08-01T06:29:50.126Z,2.67
2022-08-01T06:32:27.529Z,2.72
2022-08-01T06:34:55.794Z,2.97
2022-08-01T06:37:23.157Z,2.58
2022-08-01T06:39:50.878Z,2.50
2022-08-01T06:42:18.558Z,2.70
2022-08-01T06:44:46.215Z,2.60
2022-08-01T06:47:13.637Z,2.63
2022-08-01T06:49:40.709Z,2.60
2022-08-01T06:52:08.178Z,2.38
2022-08-01T06:54:35.432Z,2.38
2022-08-01T06:57:05.507Z,3.00
2022-08-01T06:59:32.439Z,2.78
2022-08-01T07:01:59.420Z,2.58
2022-08-01T07:04:26.279Z,2.55
2022-08-01T07:06:53.131Z,2.78
2022-08-01T07:09:20.151Z,2.53
2022-08-01T07:11:47.045Z,2.83
2022-08-01T07:14:13.898Z,2.50
2022-08-01T07:16:40.859Z,2.38
2022-08-01T07:19:07.931Z,2.50
2022-08-01T07:21:40.308Z,2.70
2022-08-01T07:24:13.397Z,2.60
2022-08-01T07:26:53.385Z,2.05
2022-08-01T07:29:25.758Z,2.40
2022-08-01T07:31:58.266Z,2.55
2022-08-01T07:34:26.270Z,2.55
2022-08-01T07:36:53.747Z,2.58
2022-08-01T07:39:21.008Z,2.50
2022-08-01T07:42:06.041Z,2.25
2022-08-01T07:44:35.340Z,2.30
2022-08-01T07:47:02.301Z,2.30
2022-08-01T07:49:29.390Z,2.30
2022-08-01T07:52:04.047Z,2.72
2022-08-01T07:54:35.192Z,2.40
2022-08-01T07:57:03.807Z,2.30
2022-08-01T07:59:31.030Z,2.33
2022-08-01T08:01:58.183Z,2.40
2022-08-01T08:04:25.408Z,2.13
2022-08-01T08:06:54.279Z,2.22
2022-08-01T08:09:21.588Z,2.55
2022-08-01T08:11:48.670Z,2.10
2022-08-01T08:14:19.578Z,1.90
2022-08-01T08:16:46.952Z,2.40
2022-08-01T08:19:14.262Z,2.00
2022-08-01T08:21:41.534Z,2.30
2022-08-01T08:24:25.871Z,2.20
2022-08-01T08:27:09.574Z,2.00
2022-08-01T08:29:36.546Z,2.38
2022-08-01T08:32:04.003Z,1.98
2022-08-01T08:34:31.187Z,2.10
2022-08-01T08:37:00.156Z,2.10
2022-08-01T08:41:55.746Z,2.15
2022-08-01T08:44:22.613Z,2.00
2022-08-01T08:46:55.985Z,1.75
2022-08-01T08:49:26.696Z,1.80
2022-08-01T08:51:58.641Z,1.80
2022-08-01T08:54:29.119Z,2.30
2022-08-01T08:57:00.577Z,2.15
2022-08-01T08:59:29.079Z,1.90
2022-08-01T09:01:56.752Z,1.85
2022-08-01T09:04:26.208Z,2.17
2022-08-01T09:09:21.389Z,2.20
2022-08-01T09:12:07.176Z,2.03
2022-08-01T09:14:36.297Z,1.83
2022-08-01T09:17:10.899Z,1.92
2022-08-01T09:19:40.423Z,1.75
2022-08-01T09:22:10.941Z,2.00
2022-08-01T09:24:38.821Z,1.90
2022-08-01T09:27:26.496Z,1.70
2022-08-01T09:30:01.572Z,1.67
2022-08-01T09:32:35.976Z,1.60
2022-08-01T09:35:31.216Z,2.10
2022-08-01T09:38:28.302Z,2.00
2022-08-01T09:40:58.331Z,2.10
2022-08-01T09:43:27.975Z,1.75
2022-08-01T09:45:57.698Z,1.90
2022-08-01T09:48:28.441Z,2.13
2022-08-01T09:51:03.877Z,1.90
2022-08-01T09:53:51.057Z,1.83
2022-08-01T09:56:19.699Z,2.08
2022-08-01T09:59:02.334Z,1.80
2022-08-01T10:01:43.269Z,1.83
2022-08-01T10:04:13.363Z,2.00
2022-08-01T10:06:45.114Z,1.88
2022-08-01T10:09:15.635Z,1.77
2022-08-01T10:11:44.931Z,1.83
2022-08-01T10:14:17.678Z,2.05
2022-08-01T10:16:52.932Z,1.90
2022-08-01T10:19:24.558Z,2.00
2022-08-01T10:21:58.728Z,1.75
2022-08-01T10:24:29.358Z,2.22
2022-08-01T10:27:12.178Z,2.00
2022-08-01T10:29:46.332Z,2.05
2022-08-01T10:32:28.973Z,1.70
2022-08-01T10:34:56.985Z,1.60
2022-08-01T10:37:24.796Z,1.70
2022-08-01T10:40:14.023Z,1.60
2022-08-01T10:42:46.498Z,1.80
2022-08-01T10:45:16.200Z,1.92
2022-08-01T10:47:55.194Z,2.42
2022-08-01T10:50:32.729Z,1.77
2022-08-01T10:53:16.102Z,1.50
2022-08-01T10:56:06.594Z,1.80
2022-08-01T10:58:42.605Z,1.73
2022-08-01T11:01:15.496Z,1.90
2022-08-01T11:04:01.505Z,1.50
2022-08-01T11:06:34.831Z,1.40
2022-08-01T11:09:36.211Z,1.70
2022-08-01T11:12:07.244Z,1.40
2022-08-01T11:14:55.214Z,1.25
2022-08-01T11:17:49.464Z,1.30
2022-08-01T11:20:23.651Z,1.60
2022-08-01T11:23:04.980Z,1.73
2022-08-01T11:25:58.336Z,1.52
2022-08-01T11:28:32.711Z,1.45
2022-08-01T11:31:11.891Z,1.30
2022-08-01T11:33:45.467Z,1.40
2022-08-01T11:36:14.539Z,1.20
2022-08-01T11:38:47.952Z,1.42
2022-08-01T11:41:21.180Z,1.40
2022-08-01T11:44:14.334Z,1.00
2022-08-01T11:46:57.613Z,1.20
2022-08-01T11:49:30.989Z,1.70
2022-08-01T11:52:06.757Z,1.63
2022-08-01T11:54:58.316Z,1.20
2022-08-01T11:57:34.573Z,1.10
2022-08-01T12:00:16.865Z,1.20
2022-08-01T12:02:57.083Z,1.05
2022-08-01T12:05:27.357Z,0.90
2022-08-01T12:07:56.001Z,0.93
2022-08-01T12:10:25.820Z,0.95
2022-08-01T12:13:04.383Z,1.00
2022-08-01T12:15:36.860Z,0.82
2022-08-01T12:18:06.988Z,1.10
2022-08-01T12:20:36.728Z,1.00
2022-08-01T12:23:09.044Z,0.90
2022-08-01T12:25:37.272Z,0.90
2022-08-01T12:28:07.014Z,0.93
2022-08-01T12:30:38.278Z,0.70
2022-08-01T12:33:07.658Z,0.90
2022-08-01T12:38:05.003Z,1.17
2022-08-01T12:40:34.373Z,0.85
2022-08-01T12:45:36.154Z,0.73
2022-08-01T12:48:08.860Z,0.90
2022-08-01T12:50:39.212Z,0.90
2022-08-01T12:53:07.122Z,0.70
2022-08-01T12:55:35.092Z,0.70
2022-08-01T12:58:15.406Z,0.70
2022-08-01T13:00:45.356Z,0.75
2022-08-01T13:03:20.015Z,0.65
2022-08-01T13:05:58.560Z,0.73
2022-08-01T13:08:31.614Z,0.80
2022-08-01T13:11:17.695Z,0.70
2022-08-01T13:13:50.433Z,0.80
2022-08-01T13:16:49.102Z,0.70
2022-08-01T13:19:14.928Z,0.80
2022-08-01T13:21:55.788Z,0.90
2022-08-01T13:24:30.471Z,0.93
2022-08-01T13:27:00.954Z,0.93
2022-08-01T13:29:42.169Z,0.95
2022-08-01T13:32:29.987Z,0.80
2022-08-01T13:35:10.439Z,0.93
2022-08-01T13:37:39.062Z,0.80
2022-08-01T13:40:08.185Z,0.88
2022-08-01T13:42:35.430Z,0.80
2022-08-01T13:45:03.729Z,0.90
2022-08-01T13:47:32.495Z,0.82
2022-08-01T13:50:03.227Z,1.00
2022-08-01T13:52:30.611Z,0.73
2022-08-01T13:54:57.864Z,0.90
2022-08-01T13:57:24.744Z,0.77
2022-08-01T13:59:52.556Z,0.70
2022-08-01T14:02:20.704Z,1.23
2022-08-01T14:04:47.844Z,0.90
2022-08-01T14:07:15.354Z,1.00
2022-08-01T14:09:44.927Z,0.90
2022-08-01T14:12:29.918Z,0.90
2022-08-01T14:14:57.373Z,1.10
2022-08-01T14:17:24.560Z,1.40
2022-08-01T14:19:51.435Z,1.10
2022-08-01T14:22:18.329Z,1.35
2022-08-01T14:24:45.235Z,1.38
2022-08-01T14:27:18.280Z,1.60
2022-08-01T14:30:00.270Z,1.20
2022-08-01T14:32:30.620Z,1.30
2022-08-01T14:34:57.907Z,1.40
2022-08-01T14:37:28.749Z,1.30
2022-08-01T14:40:04.967Z,1.10
2022-08-01T14:42:34.722Z,1.02
2022-08-01T14:45:01.618Z,1.30
2022-08-01T14:47:28.444Z,1.10
2022-08-01T14:49:55.394Z,1.10
2022-08-01T14:52:22.463Z,1.00
2022-08-01T14:54:49.417Z,0.90
2022-08-01T14:57:19.109Z,1.30
2022-08-01T14:59:46.849Z,1.30
2022-08-01T15:02:17.904Z,0.95
2022-08-01T15:04:45.864Z,1.20
2022-08-01T15:07:13.578Z,1.15
2022-08-01T15:09:40.942Z,1.40
2022-08-01T15:12:08.696Z,1.13
2022-08-01T15:14:53.848Z,1.10
2022-08-01T15:17:23.448Z,1.35
2022-08-01T15:19:53.998Z,1.40
2022-08-01T15:22:24.578Z,1.25
2022-08-01T15:24:57.146Z,1.30
2022-08-01T15:27:25.381Z,1.40
2022-08-01T15:29:53.178Z,1.27
2022-08-01T15:32:20.488Z,1.38
2022-08-01T15:34:47.748Z,1.25
2022-08-01T15:37:15.661Z,1.30
2022-08-01T15:39:42.964Z,1.20
2022-08-01T15:42:12.188Z,1.40
2022-08-01T15:44:39.626Z,1.20
2022-08-01T15:47:07.766Z,1.35
2022-08-01T15:49:37.063Z,1.17
2022-08-01T15:52:08.747Z,1.30
2022-08-01T15:54:49.730Z,1.10
2022-08-01T15:57:16.767Z,1.10
2022-08-01T15:59:43.727Z,1.02
2022-08-01T16:02:11.329Z,1.10
2022-08-01T16:04:38.734Z,1.10
2022-08-01T16:07:06.573Z,1.20
2022-08-01T16:09:33.847Z,1.30
2022-08-01T16:12:00.948Z,1.10
2022-08-01T16:14:27.928Z,1.20
2022-08-01T16:16:54.868Z,1.30
2022-08-01T16:19:22.051Z,1.25
2022-08-01T16:21:49.061Z,1.00
2022-08-01T16:24:15.954Z,1.80
2022-08-01T16:26:43.203Z,1.40
2022-08-01T16:29:10.090Z,1.58
2022-08-01T16:31:48.036Z,1.35
2022-08-01T16:34:20.177Z,1.38
2022-08-01T16:36:52.693Z,1.63
2022-08-01T16:41:55.352Z,1.60
2022-08-01T16:44:29.057Z,2.08
2022-08-01T16:47:05.250Z,2.00
2022-08-01T16:49:32.804Z,1.92
2022-08-01T16:51:59.981Z,1.70
2022-08-01T16:54:27.757Z,1.70
2022-08-01T16:56:57.311Z,1.83
2022-08-01T16:59:25.020Z,1.30
2022-08-01T17:01:59.167Z,1.55
2022-08-01T17:04:30.097Z,1.45
2022-08-01T17:06:57.437Z,1.60
2022-08-01T17:09:24.512Z,1.63
2022-08-01T17:11:51.962Z,1.50
2022-08-01T17:14:18.944Z,1.50
2022-08-01T17:16:46.605Z,1.40
2022-08-01T17:19:14.616Z,1.33
2022-08-01T17:21:42.577Z,1.33
2022-08-01T17:24:10.260Z,1.10
2022-08-01T17:26:43.531Z,1.60
2022-08-01T17:29:10.487Z,1.30
2022-08-01T17:31:37.384Z,1.48
2022-08-01T17:34:04.469Z,1.30
2022-08-01T17:36:31.870Z,1.30
2022-08-01T17:38:59.648Z,1.42
2022-08-01T17:41:26.680Z,1.45
2022-08-01T17:43:53.712Z,1.35
2022-08-01T17:46:20.606Z,1.38
2022-08-01T17:48:47.553Z,1.35
2022-08-01T17:51:18.113Z,1.50
2022-08-01T17:53:57.114Z,1.40
2022-08-01T17:56:26.272Z,1.73
2022-08-01T17:58:53.454Z,1.67
2022-08-01T18:01:21.093Z,1.50
2022-08-01T18:03:48.771Z,1.67
2022-08-01T18:06:18.966Z,1.80
2022-08-01T18:08:47.761Z,1.75
2022-08-01T18:11:18.368Z,1.67
2022-08-01T18:13:48.259Z,1.70
2022-08-01T18:16:16.733Z,1.50
2022-08-01T18:18:44.032Z,1.58
2022-08-01T18:21:12.089Z,1.58
2022-08-01T18:23:39.239Z,1.67
2022-08-01T18:26:09.005Z,1.65
2022-08-01T18:28:42.047Z,1.52
2022-08-01T18:31:16.690Z,1.75
2022-08-01T18:33:44.938Z,1.77
2022-08-01T18:36:28.319Z,2.20
2022-08-01T18:38:59.888Z,1.70
2022-08-01T18:41:27.067Z,1.60
2022-08-01T18:44:05.822Z,1.52
2022-08-01T18:46:37.526Z,2.20
2022-08-01T18:49:06.265Z,1.98
2022-08-01T18:51:34.289Z,1.55
2022-08-01T18:54:01.599Z,1.67
2022-08-01T18:56:28.623Z,1.80
2022-08-01T18:58:55.969Z,1.80
2022-08-01T19:01:23.021Z,1.95
2022-08-01T19:03:50.103Z,1.85
2022-08-01T19:06:17.053Z,1.83
2022-08-01T19:08:44.855Z,2.08
2022-08-01T19:11:12.184Z,1.95
2022-08-01T19:13:39.199Z,1.90
2022-08-01T19:16:09.372Z,2.00
2022-08-01T19:18:36.371Z,1.67
2022-08-01T19:21:06.635Z,1.83
2022-08-01T19:23:53.376Z,1.73
2022-08-01T19:26:27.398Z,2.40
2022-08-01T19:29:04.296Z,2.45
2022-08-01T19:31:31.419Z,2.30
2022-08-01T19:33:58.803Z,3.53
2022-08-01T19:36:26.959Z,2.60
2022-08-01T19:38:55.529Z,2.30
2022-08-01T19:41:23.094Z,2.17
2022-08-01T19:43:51.154Z,2.35
2022-08-01T19:46:18.751Z,2.17
2022-08-01T19:48:51.541Z,2.08
2022-08-01T19:51:33.149Z,2.47
2022-08-01T19:54:05.461Z,2.30
2022-08-01T19:56:40.312Z,2.40
2022-08-01T19:59:10.539Z,2.40
2022-08-01T20:01:37.651Z,1.83
2022-08-01T20:04:06.193Z,1.95
2022-08-01T20:06:35.294Z,1.93
2022-08-01T20:09:04.031Z,1.98
2022-08-01T20:11:31.591Z,2.03
2022-08-01T20:13:58.654Z,1.70
2022-08-01T20:16:26.080Z,2.00
2022-08-01T20:18:53.015Z,2.10
2022-08-01T20:21:20.762Z,1.85
2022-08-01T20:23:50.112Z,2.13
2022-08-01T20:26:18.274Z,1.98
2022-08-01T20:28:49.355Z,2.10
2022-08-01T20:31:16.825Z,2.38
2022-08-01T20:33:47.382Z,2.78
2022-08-01T20:36:25.816Z,2.45
2022-08-01T20:38:55.232Z,2.25
2022-08-01T20:41:25.821Z,2.40
2022-08-01T20:46:28.524Z,3.00
2022-08-01T20:48:57.632Z,2.40
2022-08-01T20:51:26.031Z,2.60
2022-08-01T20:53:53.704Z,2.78
2022-08-01T20:56:46.499Z,2.60
2022-08-01T20:59:39.756Z,2.90
2022-08-01T21:02:41.776Z,3.10
2022-08-01T21:05:12.844Z,2.60
2022-08-01T21:07:45.103Z,2.70
2022-08-01T21:10:15.475Z,2.90
2022-08-01T21:12:54.406Z,2.97
2022-08-01T21:16:07.325Z,2.30
2022-08-01T21:18:37.893Z,2.45
2022-08-01T21:21:27.574Z,2.63
2022-08-01T21:23:57.821Z,3.22
2022-08-01T21:26:25.280Z,2.90
2022-08-01T21:28:54.038Z,2.67
2022-08-01T21:31:23.077Z,2.72
2022-08-01T21:34:02.903Z,2.50
2022-08-01T21:36:31.566Z,2.70
2022-08-01T21:38:59.516Z,2.90
2022-08-01T21:41:56.426Z,2.70
2022-08-01T21:44:16.535Z,2.60
2022-08-01T21:46:44.239Z,2.80
2022-08-01T21:49:12.597Z,2.50
2022-08-01T21:51:56.187Z,2.47
2022-08-01T21:54:34.100Z,2.67
2022-08-01T21:57:07.049Z,2.85
2022-08-01T21:59:43.001Z,1.85
2022-08-01T22:02:17.554Z,1.73
2022-08-01T22:05:09.796Z,2.03
2022-08-01T22:07:53.285Z,1.92
2022-08-01T22:10:20.751Z,1.50
2022-08-01T22:12:48.133Z,1.75
2022-08-01T22:15:14.976Z,1.98
2022-08-01T22:17:44.836Z,1.60
2022-08-01T22:20:12.895Z,1.50
2022-08-01T22:22:51.310Z,1.50
2022-08-01T22:25:19.950Z,1.80
2022-08-01T22:28:05.507Z,1.90
2022-08-01T22:30:39.899Z,1.75
2022-08-01T22:33:16.377Z,1.80
2022-08-01T22:35:49.991Z,1.65
2022-08-01T22:38:18.784Z,1.67
2022-08-01T22:40:50.716Z,1.67
2022-08-01T22:43:36.480Z,1.20
2022-08-01T22:46:26.813Z,1.40
2022-08-01T22:49:12.110Z,1.30
2022-08-01T22:51:55.213Z,1.27
2022-08-01T22:54:30.354Z,1.52
2022-08-01T22:57:07.313Z,1.05
2022-08-01T22:59:42.865Z,1.10
2022-08-01T23:02:16.125Z,1.33
2022-08-01T23:04:49.256Z,1.27
2022-08-01T23:07:22.017Z,1.52
2022-08-01T23:09:54.150Z,1.63
2022-08-01T23:12:27.593Z,1.20
2022-08-01T23:14:56.722Z,1.50
2022-08-01T23:17:29.802Z,1.40
2022-08-01T23:20:02.441Z,1.50
2022-08-01T23:22:32.496Z,1.50
2022-08-01T23:25:06.295Z,1.50
2022-08-01T23:27:56.016Z,1.70
2022-08-01T23:30:29.944Z,2.00
2022-08-01T23:32:57.895Z,1.90
2022-08-01T23:35:25.940Z,2.10
2022-08-01T23:37:53.361Z,2.35
2022-08-01T23:40:24.761Z,2.45
2022-08-01T23:42:54.622Z,2.20
2022-08-01T23:45:22.173Z,2.00
2022-08-01T23:47:49.203Z,2.03
2022-08-01T23:50:16.115Z,2.10
2022-08-01T23:52:49.711Z,2.17
2022-08-01T23:55:19.061Z,2.67
2022-08-01T23:57:45.951Z,2.03
